sensor_id;sensor_type;location;lat;lon;timestamp;P1;durP1;ratioP1;P2;durP2;ratioP2
69847;SDS011;57143;55.940;37.496;2023-07-16T00:00:00;8.00;;;3.63;;
69847;SDS011;57143;55.940;37.496;2023-07-16T00:02:31;7.80;;;3.90;;
69847;SDS011;57143;55.940;37.496;2023-07-16T00:04:58;7.93;;;4.23;;
69847;SDS011;57143;55.940;37.496;2023-07-16T00:07:27;9.27;;;3.72;;
69847;SDS011;57143;55.940;37.496;2023-07-16T00:09:54;7.97;;;4.00;;
69847;SDS011;57143;55.940;37.496;2023-07-16T00:12:21;8.98;;;3.83;;
69847;SDS011;57143;55.940;37.496;2023-07-16T00:14:48;8.15;;;3.45;;
69847;SDS011;57143;55.940;37.496;2023-07-16T00:17:16;7.37;;;4.00;;
69847;SDS011;57143;55.940;37.496;2023-07-16T00:19:43;8.75;;;3.88;;
69847;SDS011;57143;55.940;37.496;2023-07-16T00:22:10;9.80;;;4.10;;
69847;SDS011;57143;55.940;37.496;2023-07-16T00:24:39;8.57;;;3.90;;
69847;SDS011;57143;55.940;37.496;2023-07-16T00:27:06;8.35;;;4.05;;
69847;SDS011;57143;55.940;37.496;2023-07-16T00:29:33;8.03;;;3.40;;
69847;SDS011;57143;55.940;37.496;2023-07-16T00:32:00;7.53;;;3.60;;
69847;SDS011;57143;55.940;37.496;2023-07-16T00:34:27;8.15;;;3.83;;
69847;SDS011;57143;55.940;37.496;2023-07-16T00:36:54;9.77;;;3.97;;
69847;SDS011;57143;55.940;37.496;2023-07-16T00:39:27;7.80;;;3.80;;
69847;SDS011;57143;55.940;37.496;2023-07-16T00:41:55;8.83;;;4.07;;
69847;SDS011;57143;55.940;37.496;2023-07-16T00:44:23;7.18;;;3.38;;
69847;SDS011;57143;55.940;37.496;2023-07-16T00:46:50;8.75;;;4.32;;
69847;SDS011;57143;55.940;37.496;2023-07-16T00:49:18;7.85;;;3.55;;
69847;SDS011;57143;55.940;37.496;2023-07-16T00:51:45;6.55;;;3.42;;
69847;SDS011;57143;55.940;37.496;2023-07-16T00:54:12;7.97;;;4.00;;
69847;SDS011;57143;55.940;37.496;2023-07-16T00:56:40;12.07;;;4.15;;
69847;SDS011;57143;55.940;37.496;2023-07-16T00:59:09;8.63;;;4.28;;
69847;SDS011;57143;55.940;37.496;2023-07-16T01:01:36;8.27;;;3.72;;
69847;SDS011;57143;55.940;37.496;2023-07-16T01:04:05;7.15;;;3.88;;
69847;SDS011;57143;55.940;37.496;2023-07-16T01:06:33;7.70;;;3.93;;
69847;SDS011;57143;55.940;37.496;2023-07-16T01:09:06;8.48;;;3.63;;
69847;SDS011;57143;55.940;37.496;2023-07-16T01:11:35;8.90;;;3.92;;
69847;SDS011;57143;55.940;37.496;2023-07-16T01:14:04;8.27;;;4.07;;
69847;SDS011;57143;55.940;37.496;2023-07-16T01:16:35;9.63;;;4.53;;
69847;SDS011;57143;55.940;37.496;2023-07-16T01:19:02;9.03;;;4.10;;
69847;SDS011;57143;55.940;37.496;2023-07-16T01:21:31;8.75;;;4.00;;
69847;SDS011;57143;55.940;37.496;2023-07-16T01:24:08;8.75;;;3.85;;
69847;SDS011;57143;55.940;37.496;2023-07-16T01:26:58;7.38;;;3.80;;
69847;SDS011;57143;55.940;37.496;2023-07-16T01:29:45;9.85;;;4.72;;
69847;SDS011;57143;55.940;37.496;2023-07-16T01:32:15;9.40;;;3.80;;
69847;SDS011;57143;55.940;37.496;2023-07-16T01:34:44;8.27;;;4.03;;
69847;SDS011;57143;55.940;37.496;2023-07-16T01:37:12;8.27;;;4.10;;
69847;SDS011;57143;55.940;37.496;2023-07-16T01:39:39;8.98;;;4.38;;
69847;SDS011;57143;55.940;37.496;2023-07-16T01:42:07;8.65;;;4.00;;
69847;SDS011;57143;55.940;37.496;2023-07-16T01:44:34;8.37;;;3.77;;
69847;SDS011;57143;55.940;37.496;2023-07-16T01:47:08;8.32;;;3.97;;
69847;SDS011;57143;55.940;37.496;2023-07-16T01:49:37;10.05;;;4.72;;
69847;SDS011;57143;55.940;37.496;2023-07-16T01:52:06;7.65;;;4.25;;
69847;SDS011;57143;55.940;37.496;2023-07-16T01:54:34;9.68;;;4.97;;
69847;SDS011;57143;55.940;37.496;2023-07-16T01:57:01;10.53;;;4.70;;
69847;SDS011;57143;55.940;37.496;2023-07-16T01:59:28;7.78;;;4.47;;
69847;SDS011;57143;55.940;37.496;2023-07-16T02:01:56;9.48;;;4.95;;
69847;SDS011;57143;55.940;37.496;2023-07-16T02:04:24;7.50;;;3.83;;
69847;SDS011;57143;55.940;37.496;2023-07-16T02:06:51;8.50;;;4.88;;
69847;SDS011;57143;55.940;37.496;2023-07-16T02:09:19;9.90;;;4.73;;
69847;SDS011;57143;55.940;37.496;2023-07-16T02:11:47;10.80;;;4.50;;
69847;SDS011;57143;55.940;37.496;2023-07-16T02:14:14;9.65;;;4.88;;
69847;SDS011;57143;55.940;37.496;2023-07-16T02:16:42;11.88;;;5.03;;
69847;SDS011;57143;55.940;37.496;2023-07-16T02:19:09;10.32;;;5.30;;
69847;SDS011;57143;55.940;37.496;2023-07-16T02:21:43;11.33;;;4.80;;
69847;SDS011;57143;55.940;37.496;2023-07-16T02:24:10;9.23;;;4.93;;
69847;SDS011;57143;55.940;37.496;2023-07-16T02:26:39;9.93;;;4.82;;
69847;SDS011;57143;55.940;37.496;2023-07-16T02:29:06;8.73;;;4.28;;
69847;SDS011;57143;55.940;37.496;2023-07-16T02:31:34;9.65;;;4.32;;
69847;SDS011;57143;55.940;37.496;2023-07-16T02:34:01;8.43;;;4.57;;
69847;SDS011;57143;55.940;37.496;2023-07-16T02:36:28;9.63;;;4.70;;
69847;SDS011;57143;55.940;37.496;2023-07-16T02:38:57;11.85;;;4.90;;
69847;SDS011;57143;55.940;37.496;2023-07-16T02:41:24;12.55;;;4.68;;
69847;SDS011;57143;55.940;37.496;2023-07-16T02:43:58;8.70;;;5.03;;
69847;SDS011;57143;55.940;37.496;2023-07-16T02:46:26;10.27;;;4.77;;
69847;SDS011;57143;55.940;37.496;2023-07-16T02:48:53;7.68;;;4.20;;
69847;SDS011;57143;55.940;37.496;2023-07-16T02:51:20;11.13;;;5.10;;
69847;SDS011;57143;55.940;37.496;2023-07-16T02:53:47;11.50;;;4.65;;
69847;SDS011;57143;55.940;37.496;2023-07-16T02:56:17;13.30;;;4.95;;
69847;SDS011;57143;55.940;37.496;2023-07-16T02:58:44;9.73;;;4.40;;
69847;SDS011;57143;55.940;37.496;2023-07-16T03:01:11;11.65;;;4.63;;
69847;SDS011;57143;55.940;37.496;2023-07-16T03:03:39;8.32;;;4.50;;
69847;SDS011;57143;55.940;37.496;2023-07-16T03:06:06;7.78;;;4.28;;
69847;SDS011;57143;55.940;37.496;2023-07-16T03:08:34;9.70;;;4.80;;
69847;SDS011;57143;55.940;37.496;2023-07-16T03:11:01;7.60;;;4.33;;
69847;SDS011;57143;55.940;37.496;2023-07-16T03:13:30;9.23;;;4.65;;
69847;SDS011;57143;55.940;37.496;2023-07-16T03:15:57;8.52;;;4.70;;
69847;SDS011;57143;55.940;37.496;2023-07-16T03:18:27;9.98;;;4.35;;
69847;SDS011;57143;55.940;37.496;2023-07-16T03:20:55;8.23;;;4.57;;
69847;SDS011;57143;55.940;37.496;2023-07-16T03:23:22;10.60;;;4.93;;
69847;SDS011;57143;55.940;37.496;2023-07-16T03:25:50;8.13;;;4.68;;
69847;SDS011;57143;55.940;37.496;2023-07-16T03:28:18;10.45;;;4.97;;
69847;SDS011;57143;55.940;37.496;2023-07-16T03:30:47;9.45;;;4.57;;
69847;SDS011;57143;55.940;37.496;2023-07-16T03:33:14;8.90;;;4.65;;
69847;SDS011;57143;55.940;37.496;2023-07-16T03:35:42;9.43;;;4.60;;
69847;SDS011;57143;55.940;37.496;2023-07-16T03:38:09;10.07;;;4.43;;
69847;SDS011;57143;55.940;37.496;2023-07-16T03:40:36;8.13;;;4.70;;
69847;SDS011;57143;55.940;37.496;2023-07-16T03:43:04;8.80;;;4.50;;
69847;SDS011;57143;55.940;37.496;2023-07-16T03:45:31;8.75;;;4.93;;
69847;SDS011;57143;55.940;37.496;2023-07-16T03:48:00;8.60;;;4.33;;
69847;SDS011;57143;55.940;37.496;2023-07-16T03:50:27;11.10;;;5.15;;
69847;SDS011;57143;55.940;37.496;2023-07-16T03:52:54;7.75;;;4.53;;
69847;SDS011;57143;55.940;37.496;2023-07-16T03:55:22;9.70;;;4.75;;
69847;SDS011;57143;55.940;37.496;2023-07-16T03:57:49;9.18;;;4.90;;
69847;SDS011;57143;55.940;37.496;2023-07-16T04:00:16;8.33;;;4.20;;
69847;SDS011;57143;55.940;37.496;2023-07-16T04:02:44;8.65;;;4.70;;
69847;SDS011;57143;55.940;37.496;2023-07-16T04:05:12;8.77;;;4.35;;
69847;SDS011;57143;55.940;37.496;2023-07-16T04:07:39;10.20;;;4.88;;
69847;SDS011;57143;55.940;37.496;2023-07-16T04:10:07;10.98;;;5.30;;
69847;SDS011;57143;55.940;37.496;2023-07-16T04:12:34;8.33;;;4.83;;
69847;SDS011;57143;55.940;37.496;2023-07-16T04:15:06;9.43;;;5.25;;
69847;SDS011;57143;55.940;37.496;2023-07-16T04:17:34;9.68;;;5.32;;
69847;SDS011;57143;55.940;37.496;2023-07-16T04:20:02;11.00;;;5.45;;
69847;SDS011;57143;55.940;37.496;2023-07-16T04:22:32;10.02;;;5.05;;
69847;SDS011;57143;55.940;37.496;2023-07-16T04:24:59;9.03;;;5.03;;
69847;SDS011;57143;55.940;37.496;2023-07-16T04:27:29;9.02;;;5.22;;
69847;SDS011;57143;55.940;37.496;2023-07-16T04:29:56;10.13;;;5.43;;
69847;SDS011;57143;55.940;37.496;2023-07-16T04:32:23;10.73;;;5.35;;
69847;SDS011;57143;55.940;37.496;2023-07-16T04:34:50;9.85;;;5.32;;
69847;SDS011;57143;55.940;37.496;2023-07-16T04:37:17;9.40;;;5.70;;
69847;SDS011;57143;55.940;37.496;2023-07-16T04:39:46;8.35;;;4.63;;
69847;SDS011;57143;55.940;37.496;2023-07-16T04:42:13;12.40;;;5.05;;
69847;SDS011;57143;55.940;37.496;2023-07-16T04:44:42;11.85;;;5.90;;
69847;SDS011;57143;55.940;37.496;2023-07-16T04:47:09;13.63;;;5.00;;
69847;SDS011;57143;55.940;37.496;2023-07-16T04:49:36;13.30;;;5.17;;
69847;SDS011;57143;55.940;37.496;2023-07-16T04:52:04;11.20;;;5.47;;
69847;SDS011;57143;55.940;37.496;2023-07-16T04:54:34;9.20;;;5.38;;
69847;SDS011;57143;55.940;37.496;2023-07-16T04:57:05;9.68;;;5.32;;
69847;SDS011;57143;55.940;37.496;2023-07-16T04:59:33;10.60;;;5.25;;
69847;SDS011;57143;55.940;37.496;2023-07-16T05:02:01;10.60;;;5.37;;
69847;SDS011;57143;55.940;37.496;2023-07-16T05:04:29;10.50;;;5.22;;
69847;SDS011;57143;55.940;37.496;2023-07-16T05:06:56;9.55;;;5.63;;
69847;SDS011;57143;55.940;37.496;2023-07-16T05:09:23;11.40;;;5.70;;
69847;SDS011;57143;55.940;37.496;2023-07-16T05:11:50;10.20;;;5.60;;
69847;SDS011;57143;55.940;37.496;2023-07-16T05:14:19;9.13;;;5.37;;
69847;SDS011;57143;55.940;37.496;2023-07-16T05:16:46;10.50;;;5.55;;
69847;SDS011;57143;55.940;37.496;2023-07-16T05:19:13;11.65;;;6.05;;
69847;SDS011;57143;55.940;37.496;2023-07-16T05:21:41;10.85;;;5.47;;
69847;SDS011;57143;55.940;37.496;2023-07-16T05:24:08;11.57;;;5.30;;
69847;SDS011;57143;55.940;37.496;2023-07-16T05:26:35;10.83;;;5.30;;
69847;SDS011;57143;55.940;37.496;2023-07-16T05:29:02;9.40;;;5.53;;
69847;SDS011;57143;55.940;37.496;2023-07-16T05:31:31;10.77;;;5.65;;
69847;SDS011;57143;55.940;37.496;2023-07-16T05:33:58;8.93;;;5.15;;
69847;SDS011;57143;55.940;37.496;2023-07-16T05:36:25;10.93;;;5.40;;
69847;SDS011;57143;55.940;37.496;2023-07-16T05:38:52;11.43;;;5.83;;
69847;SDS011;57143;55.940;37.496;2023-07-16T05:41:19;12.65;;;5.53;;
69847;SDS011;57143;55.940;37.496;2023-07-16T05:43:46;10.57;;;5.22;;
69847;SDS011;57143;55.940;37.496;2023-07-16T05:46:13;8.45;;;4.85;;
69847;SDS011;57143;55.940;37.496;2023-07-16T05:48:42;10.80;;;6.13;;
69847;SDS011;57143;55.940;37.496;2023-07-16T05:51:09;10.47;;;5.30;;
69847;SDS011;57143;55.940;37.496;2023-07-16T05:53:36;9.68;;;5.38;;
69847;SDS011;57143;55.940;37.496;2023-07-16T05:56:03;11.20;;;5.80;;
69847;SDS011;57143;55.940;37.496;2023-07-16T05:58:31;8.75;;;5.07;;
69847;SDS011;57143;55.940;37.496;2023-07-16T06:00:58;11.07;;;6.03;;
69847;SDS011;57143;55.940;37.496;2023-07-16T06:03:25;12.53;;;5.60;;
69847;SDS011;57143;55.940;37.496;2023-07-16T06:05:54;10.90;;;6.10;;
69847;SDS011;57143;55.940;37.496;2023-07-16T06:08:21;10.32;;;5.93;;
69847;SDS011;57143;55.940;37.496;2023-07-16T06:10:50;13.82;;;5.68;;
69847;SDS011;57143;55.940;37.496;2023-07-16T06:13:17;10.85;;;5.63;;
69847;SDS011;57143;55.940;37.496;2023-07-16T06:15:45;8.80;;;5.30;;
69847;SDS011;57143;55.940;37.496;2023-07-16T06:18:13;9.90;;;5.25;;
69847;SDS011;57143;55.940;37.496;2023-07-16T06:20:42;10.98;;;5.25;;
69847;SDS011;57143;55.940;37.496;2023-07-16T06:23:11;10.27;;;5.28;;
69847;SDS011;57143;55.940;37.496;2023-07-16T06:25:41;8.82;;;5.05;;
69847;SDS011;57143;55.940;37.496;2023-07-16T06:28:09;9.33;;;5.20;;
69847;SDS011;57143;55.940;37.496;2023-07-16T06:30:37;9.82;;;5.03;;
69847;SDS011;57143;55.940;37.496;2023-07-16T06:33:04;11.10;;;4.85;;
69847;SDS011;57143;55.940;37.496;2023-07-16T06:35:32;8.88;;;4.78;;
69847;SDS011;57143;55.940;37.496;2023-07-16T06:37:59;9.02;;;4.75;;
69847;SDS011;57143;55.940;37.496;2023-07-16T06:40:28;8.43;;;4.43;;
69847;SDS011;57143;55.940;37.496;2023-07-16T06:42:55;7.80;;;4.32;;
69847;SDS011;57143;55.940;37.496;2023-07-16T06:45:23;9.90;;;4.35;;
69847;SDS011;57143;55.940;37.496;2023-07-16T06:47:50;7.47;;;4.32;;
69847;SDS011;57143;55.940;37.496;2023-07-16T06:50:17;9.00;;;4.72;;
69847;SDS011;57143;55.940;37.496;2023-07-16T06:52:44;7.43;;;4.37;;
69847;SDS011;57143;55.940;37.496;2023-07-16T06:55:11;9.45;;;4.32;;
69847;SDS011;57143;55.940;37.496;2023-07-16T06:57:40;8.35;;;4.30;;
69847;SDS011;57143;55.940;37.496;2023-07-16T07:00:08;7.75;;;4.60;;
69847;SDS011;57143;55.940;37.496;2023-07-16T07:02:36;8.70;;;4.97;;
69847;SDS011;57143;55.940;37.496;2023-07-16T07:05:04;10.03;;;5.10;;
69847;SDS011;57143;55.940;37.496;2023-07-16T07:07:31;10.02;;;4.80;;
69847;SDS011;57143;55.940;37.496;2023-07-16T07:09:59;8.43;;;5.15;;
69847;SDS011;57143;55.940;37.496;2023-07-16T07:12:26;8.68;;;5.38;;
69847;SDS011;57143;55.940;37.496;2023-07-16T07:14:55;10.43;;;4.90;;
69847;SDS011;57143;55.940;37.496;2023-07-16T07:17:22;8.17;;;4.67;;
69847;SDS011;57143;55.940;37.496;2023-07-16T07:19:49;8.98;;;4.63;;
69847;SDS011;57143;55.940;37.496;2023-07-16T07:22:16;8.15;;;4.32;;
69847;SDS011;57143;55.940;37.496;2023-07-16T07:24:44;8.30;;;4.53;;
69847;SDS011;57143;55.940;37.496;2023-07-16T07:27:11;10.05;;;4.82;;
69847;SDS011;57143;55.940;37.496;2023-07-16T07:29:38;8.47;;;4.13;;
69847;SDS011;57143;55.940;37.496;2023-07-16T07:32:07;11.32;;;4.40;;
69847;SDS011;57143;55.940;37.496;2023-07-16T07:34:34;8.00;;;4.10;;
69847;SDS011;57143;55.940;37.496;2023-07-16T07:37:02;7.75;;;3.90;;
69847;SDS011;57143;55.940;37.496;2023-07-16T07:39:29;7.90;;;3.90;;
69847;SDS011;57143;55.940;37.496;2023-07-16T07:41:56;7.53;;;4.00;;
69847;SDS011;57143;55.940;37.496;2023-07-16T07:44:23;9.23;;;3.65;;
69847;SDS011;57143;55.940;37.496;2023-07-16T07:46:50;7.00;;;3.97;;
69847;SDS011;57143;55.940;37.496;2023-07-16T07:49:19;7.15;;;3.78;;
69847;SDS011;57143;55.940;37.496;2023-07-16T07:51:46;7.32;;;3.55;;
69847;SDS011;57143;55.940;37.496;2023-07-16T07:54:14;8.17;;;4.13;;
69847;SDS011;57143;55.940;37.496;2023-07-16T07:56:42;8.40;;;4.10;;
69847;SDS011;57143;55.940;37.496;2023-07-16T07:59:11;7.50;;;3.70;;
69847;SDS011;57143;55.940;37.496;2023-07-16T08:01:38;8.05;;;3.58;;
69847;SDS011;57143;55.940;37.496;2023-07-16T08:04:06;7.68;;;4.05;;
69847;SDS011;57143;55.940;37.496;2023-07-16T08:06:34;8.47;;;3.67;;
69847;SDS011;57143;55.940;37.496;2023-07-16T08:09:01;8.15;;;3.88;;
69847;SDS011;57143;55.940;37.496;2023-07-16T08:11:28;8.45;;;4.07;;
69847;SDS011;57143;55.940;37.496;2023-07-16T08:13:56;9.68;;;4.45;;
69847;SDS011;57143;55.940;37.496;2023-07-16T08:16:23;7.55;;;4.43;;
69847;SDS011;57143;55.940;37.496;2023-07-16T08:18:50;9.67;;;4.00;;
69847;SDS011;57143;55.940;37.496;2023-07-16T08:21:17;9.05;;;4.40;;
69847;SDS011;57143;55.940;37.496;2023-07-16T08:23:48;7.63;;;4.38;;
69847;SDS011;57143;55.940;37.496;2023-07-16T08:26:15;8.80;;;4.38;;
69847;SDS011;57143;55.940;37.496;2023-07-16T08:28:43;8.85;;;4.00;;
69847;SDS011;57143;55.940;37.496;2023-07-16T08:31:10;8.70;;;4.60;;
69847;SDS011;57143;55.940;37.496;2023-07-16T08:33:38;7.60;;;3.90;;
69847;SDS011;57143;55.940;37.496;2023-07-16T08:36:06;9.35;;;4.88;;
69847;SDS011;57143;55.940;37.496;2023-07-16T08:38:33;9.00;;;4.70;;
69847;SDS011;57143;55.940;37.496;2023-07-16T08:41:02;8.23;;;4.00;;
69847;SDS011;57143;55.940;37.496;2023-07-16T08:43:29;9.37;;;4.40;;
69847;SDS011;57143;55.940;37.496;2023-07-16T08:45:57;7.72;;;3.97;;
69847;SDS011;57143;55.940;37.496;2023-07-16T08:48:24;8.88;;;4.20;;
69847;SDS011;57143;55.940;37.496;2023-07-16T08:50:53;8.45;;;4.20;;
69847;SDS011;57143;55.940;37.496;2023-07-16T08:53:24;10.40;;;4.32;;
69847;SDS011;57143;55.940;37.496;2023-07-16T08:55:51;7.60;;;3.90;;
69847;SDS011;57143;55.940;37.496;2023-07-16T08:58:20;7.55;;;4.05;;
69847;SDS011;57143;55.940;37.496;2023-07-16T09:00:50;7.20;;;4.28;;
69847;SDS011;57143;55.940;37.496;2023-07-16T09:03:18;8.68;;;4.22;;
69847;SDS011;57143;55.940;37.496;2023-07-16T09:05:45;7.78;;;4.20;;
69847;SDS011;57143;55.940;37.496;2023-07-16T09:08:12;7.53;;;4.10;;
69847;SDS011;57143;55.940;37.496;2023-07-16T09:10:41;8.27;;;3.90;;
69847;SDS011;57143;55.940;37.496;2023-07-16T09:13:08;7.53;;;4.28;;
69847;SDS011;57143;55.940;37.496;2023-07-16T09:15:37;7.72;;;3.70;;
69847;SDS011;57143;55.940;37.496;2023-07-16T09:18:06;7.22;;;4.22;;
69847;SDS011;57143;55.940;37.496;2023-07-16T09:20:35;8.53;;;3.90;;
69847;SDS011;57143;55.940;37.496;2023-07-16T09:23:03;8.27;;;3.75;;
69847;SDS011;57143;55.940;37.496;2023-07-16T09:25:30;7.35;;;3.75;;
69847;SDS011;57143;55.940;37.496;2023-07-16T09:27:58;8.98;;;4.10;;
69847;SDS011;57143;55.940;37.496;2023-07-16T09:30:30;6.70;;;3.83;;
69847;SDS011;57143;55.940;37.496;2023-07-16T09:33:03;8.50;;;3.90;;
69847;SDS011;57143;55.940;37.496;2023-07-16T09:35:37;7.13;;;4.05;;
69847;SDS011;57143;55.940;37.496;2023-07-16T09:38:04;6.88;;;3.63;;
69847;SDS011;57143;55.940;37.496;2023-07-16T09:40:32;7.00;;;3.60;;
69847;SDS011;57143;55.940;37.496;2023-07-16T09:42:59;8.15;;;3.20;;
69847;SDS011;57143;55.940;37.496;2023-07-16T09:45:28;6.00;;;3.20;;
69847;SDS011;57143;55.940;37.496;2023-07-16T09:47:55;7.45;;;2.80;;
69847;SDS011;57143;55.940;37.496;2023-07-16T09:50:24;7.60;;;3.80;;
69847;SDS011;57143;55.940;37.496;2023-07-16T09:52:54;7.75;;;3.58;;
69847;SDS011;57143;55.940;37.496;2023-07-16T09:55:23;6.47;;;3.17;;
69847;SDS011;57143;55.940;37.496;2023-07-16T09:57:52;7.73;;;3.20;;
69847;SDS011;57143;55.940;37.496;2023-07-16T10:00:21;6.60;;;3.47;;
69847;SDS011;57143;55.940;37.496;2023-07-16T10:02:50;7.68;;;3.30;;
69847;SDS011;57143;55.940;37.496;2023-07-16T10:05:19;8.05;;;3.33;;
69847;SDS011;57143;55.940;37.496;2023-07-16T10:07:52;7.30;;;2.90;;
69847;SDS011;57143;55.940;37.496;2023-07-16T10:10:25;6.57;;;3.10;;
69847;SDS011;57143;55.940;37.496;2023-07-16T10:12:54;7.95;;;3.20;;
69847;SDS011;57143;55.940;37.496;2023-07-16T10:15:26;6.93;;;3.42;;
69847;SDS011;57143;55.940;37.496;2023-07-16T10:17:54;6.53;;;2.90;;
69847;SDS011;57143;55.940;37.496;2023-07-16T10:20:28;5.82;;;2.72;;
69847;SDS011;57143;55.940;37.496;2023-07-16T10:22:58;5.43;;;2.73;;
69847;SDS011;57143;55.940;37.496;2023-07-16T10:25:26;8.30;;;3.25;;
69847;SDS011;57143;55.940;37.496;2023-07-16T10:27:55;6.05;;;3.22;;
69847;SDS011;57143;55.940;37.496;2023-07-16T10:30:22;6.40;;;3.42;;
69847;SDS011;57143;55.940;37.496;2023-07-16T10:32:50;6.68;;;3.10;;
69847;SDS011;57143;55.940;37.496;2023-07-16T10:35:19;6.27;;;2.70;;
69847;SDS011;57143;55.940;37.496;2023-07-16T10:37:46;6.05;;;3.17;;
69847;SDS011;57143;55.940;37.496;2023-07-16T10:40:15;6.18;;;3.33;;
69847;SDS011;57143;55.940;37.496;2023-07-16T10:42:43;5.97;;;2.95;;
69847;SDS011;57143;55.940;37.496;2023-07-16T10:45:12;8.15;;;3.35;;
69847;SDS011;57143;55.940;37.496;2023-07-16T10:47:40;6.53;;;3.40;;
69847;SDS011;57143;55.940;37.496;2023-07-16T10:50:18;9.05;;;3.15;;
69847;SDS011;57143;55.940;37.496;2023-07-16T10:52:45;5.53;;;2.85;;
69847;SDS011;57143;55.940;37.496;2023-07-16T10:55:12;6.65;;;3.45;;
69847;SDS011;57143;55.940;37.496;2023-07-16T10:57:41;5.75;;;3.08;;
69847;SDS011;57143;55.940;37.496;2023-07-16T11:00:10;6.53;;;3.30;;
69847;SDS011;57143;55.940;37.496;2023-07-16T11:02:38;5.82;;;3.08;;
69847;SDS011;57143;55.940;37.496;2023-07-16T11:05:09;5.95;;;3.30;;
69847;SDS011;57143;55.940;37.496;2023-07-16T11:07:36;7.25;;;3.30;;
69847;SDS011;57143;55.940;37.496;2023-07-16T11:10:04;6.03;;;3.13;;
69847;SDS011;57143;55.940;37.496;2023-07-16T11:12:35;6.30;;;3.20;;
69847;SDS011;57143;55.940;37.496;2023-07-16T11:15:02;6.65;;;3.40;;
69847;SDS011;57143;55.940;37.496;2023-07-16T11:17:31;6.65;;;3.10;;
69847;SDS011;57143;55.940;37.496;2023-07-16T11:19:59;6.63;;;3.55;;
69847;SDS011;57143;55.940;37.496;2023-07-16T11:22:29;6.20;;;3.63;;
69847;SDS011;57143;55.940;37.496;2023-07-16T11:24:57;7.53;;;3.83;;
69847;SDS011;57143;55.940;37.496;2023-07-16T11:27:26;6.57;;;3.20;;
69847;SDS011;57143;55.940;37.496;2023-07-16T11:29:56;5.85;;;3.25;;
69847;SDS011;57143;55.940;37.496;2023-07-16T11:32:29;7.15;;;3.53;;
69847;SDS011;57143;55.940;37.496;2023-07-16T11:34:57;7.15;;;3.67;;
69847;SDS011;57143;55.940;37.496;2023-07-16T11:37:25;7.30;;;3.60;;
69847;SDS011;57143;55.940;37.496;2023-07-16T11:39:55;8.27;;;3.50;;
69847;SDS011;57143;55.940;37.496;2023-07-16T11:42:23;6.80;;;3.38;;
69847;SDS011;57143;55.940;37.496;2023-07-16T11:44:55;6.07;;;3.15;;
69847;SDS011;57143;55.940;37.496;2023-07-16T11:47:22;7.05;;;3.58;;
69847;SDS011;57143;55.940;37.496;2023-07-16T11:49:49;6.20;;;3.50;;
69847;SDS011;57143;55.940;37.496;2023-07-16T11:52:18;7.93;;;4.00;;
69847;SDS011;57143;55.940;37.496;2023-07-16T11:54:47;8.73;;;3.72;;
69847;SDS011;57143;55.940;37.496;2023-07-16T11:57:14;5.93;;;2.95;;
69847;SDS011;57143;55.940;37.496;2023-07-16T11:59:42;6.55;;;3.47;;
69847;SDS011;57143;55.940;37.496;2023-07-16T12:02:10;9.37;;;3.20;;
69847;SDS011;57143;55.940;37.496;2023-07-16T12:04:38;6.93;;;2.88;;
69847;SDS011;57143;55.940;37.496;2023-07-16T12:07:05;7.15;;;3.90;;
69847;SDS011;57143;55.940;37.496;2023-07-16T12:09:33;7.43;;;3.20;;
69847;SDS011;57143;55.940;37.496;2023-07-16T12:12:00;6.57;;;3.55;;
69847;SDS011;57143;55.940;37.496;2023-07-16T12:14:28;6.00;;;2.97;;
69847;SDS011;57143;55.940;37.496;2023-07-16T12:16:55;6.38;;;3.08;;
69847;SDS011;57143;55.940;37.496;2023-07-16T12:19:24;7.93;;;3.60;;
69847;SDS011;57143;55.940;37.496;2023-07-16T12:21:52;8.25;;;3.25;;
69847;SDS011;57143;55.940;37.496;2023-07-16T12:24:19;5.82;;;3.05;;
69847;SDS011;57143;55.940;37.496;2023-07-16T12:26:46;6.17;;;3.00;;
69847;SDS011;57143;55.940;37.496;2023-07-16T12:29:13;7.30;;;3.25;;
69847;SDS011;57143;55.940;37.496;2023-07-16T12:31:40;6.50;;;3.35;;
69847;SDS011;57143;55.940;37.496;2023-07-16T12:34:07;8.52;;;3.53;;
69847;SDS011;57143;55.940;37.496;2023-07-16T12:36:36;7.22;;;3.55;;
69847;SDS011;57143;55.940;37.496;2023-07-16T12:39:03;6.97;;;3.40;;
69847;SDS011;57143;55.940;37.496;2023-07-16T12:41:30;7.35;;;3.45;;
69847;SDS011;57143;55.940;37.496;2023-07-16T12:43:58;6.72;;;3.33;;
69847;SDS011;57143;55.940;37.496;2023-07-16T12:46:25;5.93;;;3.45;;
69847;SDS011;57143;55.940;37.496;2023-07-16T12:48:52;6.80;;;3.70;;
69847;SDS011;57143;55.940;37.496;2023-07-16T12:51:19;7.20;;;3.10;;
69847;SDS011;57143;55.940;37.496;2023-07-16T12:53:48;7.05;;;3.40;;
69847;SDS011;57143;55.940;37.496;2023-07-16T12:56:15;6.90;;;3.80;;
69847;SDS011;57143;55.940;37.496;2023-07-16T12:58:42;7.70;;;3.80;;
69847;SDS011;57143;55.940;37.496;2023-07-16T13:01:09;9.30;;;4.72;;
69847;SDS011;57143;55.940;37.496;2023-07-16T13:03:37;7.23;;;3.83;;
69847;SDS011;57143;55.940;37.496;2023-07-16T13:06:04;8.88;;;4.35;;
69847;SDS011;57143;55.940;37.496;2023-07-16T13:08:31;7.20;;;3.90;;
69847;SDS011;57143;55.940;37.496;2023-07-16T13:11:01;7.22;;;3.42;;
69847;SDS011;57143;55.940;37.496;2023-07-16T13:13:28;7.57;;;3.60;;
69847;SDS011;57143;55.940;37.496;2023-07-16T13:15:55;6.60;;;3.00;;
69847;SDS011;57143;55.940;37.496;2023-07-16T13:18:23;5.97;;;3.20;;
69847;SDS011;57143;55.940;37.496;2023-07-16T13:20:50;6.88;;;3.30;;
69847;SDS011;57143;55.940;37.496;2023-07-16T13:23:17;7.15;;;3.55;;
69847;SDS011;57143;55.940;37.496;2023-07-16T13:25:44;6.45;;;3.20;;
69847;SDS011;57143;55.940;37.496;2023-07-16T13:28:17;7.47;;;3.10;;
69847;SDS011;57143;55.940;37.496;2023-07-16T13:30:45;6.82;;;3.53;;
69847;SDS011;57143;55.940;37.496;2023-07-16T13:33:12;6.72;;;3.55;;
69847;SDS011;57143;55.940;37.496;2023-07-16T13:35:39;6.72;;;3.47;;
69847;SDS011;57143;55.940;37.496;2023-07-16T13:38:07;6.45;;;3.22;;
69847;SDS011;57143;55.940;37.496;2023-07-16T13:40:34;6.97;;;3.53;;
69847;SDS011;57143;55.940;37.496;2023-07-16T13:43:01;5.82;;;3.08;;
69847;SDS011;57143;55.940;37.496;2023-07-16T13:45:30;5.55;;;2.95;;
69847;SDS011;57143;55.940;37.496;2023-07-16T13:47:58;7.57;;;3.00;;
69847;SDS011;57143;55.940;37.496;2023-07-16T13:50:25;6.50;;;3.20;;
69847;SDS011;57143;55.940;37.496;2023-07-16T13:52:52;7.10;;;3.13;;
69847;SDS011;57143;55.940;37.496;2023-07-16T13:55:20;7.25;;;3.20;;
69847;SDS011;57143;55.940;37.496;2023-07-16T13:57:47;7.07;;;3.20;;
69847;SDS011;57143;55.940;37.496;2023-07-16T14:00:14;6.82;;;3.50;;
69847;SDS011;57143;55.940;37.496;2023-07-16T14:02:43;7.75;;;3.20;;
69847;SDS011;57143;55.940;37.496;2023-07-16T14:05:11;6.40;;;2.70;;
69847;SDS011;57143;55.940;37.496;2023-07-16T14:07:38;6.90;;;2.97;;
69847;SDS011;57143;55.940;37.496;2023-07-16T14:10:05;6.57;;;3.50;;
69847;SDS011;57143;55.940;37.496;2023-07-16T14:12:33;7.75;;;3.17;;
69847;SDS011;57143;55.940;37.496;2023-07-16T14:15:00;6.90;;;3.20;;
69847;SDS011;57143;55.940;37.496;2023-07-16T14:17:30;5.43;;;2.57;;
69847;SDS011;57143;55.940;37.496;2023-07-16T14:19:59;6.28;;;3.15;;
69847;SDS011;57143;55.940;37.496;2023-07-16T14:22:26;6.13;;;3.30;;
69847;SDS011;57143;55.940;37.496;2023-07-16T14:24:53;6.38;;;2.90;;
69847;SDS011;57143;55.940;37.496;2023-07-16T14:27:20;5.15;;;2.47;;
69847;SDS011;57143;55.940;37.496;2023-07-16T14:29:48;6.50;;;3.20;;
69847;SDS011;57143;55.940;37.496;2023-07-16T14:32:15;5.88;;;2.90;;
69847;SDS011;57143;55.940;37.496;2023-07-16T14:34:42;6.05;;;2.90;;
69847;SDS011;57143;55.940;37.496;2023-07-16T14:37:11;7.75;;;3.30;;